Time;durP1;ratioP1;P1;durP2;ratioP2;P2;SDS_P1;SDS_P2;PMS_P1;PMS_P2;Temp;Humidity;BMP_temperature;BMP_pressure;BME280_temperature;BME280_humidity;BME280_pressure;Samples;Min_cycle;Max_cycle;Signal;HPM_P1;HPM_P2
2022/06/09 00:02:04;;;;;;;12.53;5.47;;;16.00;99.90;;;;;;5091766;28;20434;-66
2022/06/09 00:04:36;;;;;;;14.90;6.73;;;16.00;99.90;;;;;;5091598;28;20532;-66
2022/06/09 00:07:10;;;;;;;15.97;5.90;;;16.00;99.90;;;;;;5091692;28;20423;-67
2022/06/09 00:09:50;;;;;;;9.60;5.23;;;16.00;99.90;;;;;;5091985;28;20491;-67
2022/06/09 00:12:16;;;;;;;9.27;5.33;;;16.00;99.90;;;;;;5095724;28;20446;-67
2022/06/09 00:14:41;;;;;;;8.50;6.20;;;16.00;99.90;;;;;;5095777;28;20942;-67
2022/06/09 00:17:07;;;;;;;12.50;5.63;;;16.00;99.90;;;;;;5095297;28;20261;-67
2022/06/09 00:19:33;;;;;;;13.20;5.70;;;16.00;99.90;;;;;;5095440;28;20173;-67
2022/06/09 00:21:59;;;;;;;8.03;5.30;;;16.00;99.90;;;;;;5095398;28;20170;-67
2022/06/09 00:24:24;;;;;;;16.33;5.77;;;16.00;99.90;;;;;;5095114;28;20673;-67
2022/06/09 00:26:50;;;;;;;13.17;6.83;;;15.90;99.90;;;;;;5095305;28;20222;-66
2022/06/09 00:29:16;;;;;;;16.03;5.77;;;15.90;99.90;;;;;;5095250;28;20181;-67
2022/06/09 00:31:41;;;;;;;10.40;5.43;;;15.90;99.90;;;;;;5095244;28;20174;-67
2022/06/09 00:34:07;;;;;;;9.37;4.97;;;15.90;99.90;;;;;;5094756;28;20308;-67
2022/06/09 00:36:32;;;;;;;14.87;6.00;;;15.90;99.90;;;;;;5095285;28;20176;-67
2022/06/09 00:38:58;;;;;;;8.90;5.73;;;15.90;99.90;;;;;;5095205;28;20197;-66
2022/06/09 00:41:25;;;;;;;8.27;5.50;;;16.00;99.90;;;;;;5076707;28;20190;-67
2022/06/09 00:43:51;;;;;;;10.93;5.83;;;16.00;99.90;;;;;;5095119;28;20308;-67
2022/06/09 00:46:21;;;;;;;6.27;4.00;;;16.00;99.90;;;;;;5094842;28;20438;-67
2022/06/09 00:49:01;;;;;;;9.67;4.40;;;16.00;99.90;;;;;;5094671;28;20530;-67
2022/06/09 00:51:39;;;;;;;10.30;5.30;;;16.00;99.90;;;;;;5094431;28;20431;-68
2022/06/09 00:54:21;;;;;;;12.27;4.87;;;16.10;99.90;;;;;;5094590;28;20918;-68
2022/06/09 00:56:54;;;;;;;8.07;4.77;;;16.10;99.90;;;;;;5094681;28;20434;-68
2022/06/09 00:59:22;;;;;;;11.73;5.67;;;16.00;99.90;;;;;;5094660;28;20771;-68
2022/06/09 01:01:48;;;;;;;9.63;5.07;;;16.00;99.90;;;;;;5094575;28;20442;-68
2022/06/09 01:04:17;;;;;;;13.77;4.93;;;15.90;99.90;;;;;;5094641;28;20471;-68
2022/06/09 01:06:52;;;;;;;17.10;4.73;;;16.00;99.90;;;;;;5094627;28;20178;-68
2022/06/09 01:09:24;;;;;;;9.77;4.57;;;16.00;99.90;;;;;;5094345;28;20523;-68
2022/06/09 01:11:51;;;;;;;10.13;4.20;;;15.90;99.90;;;;;;5094543;28;20423;-68
2022/06/09 01:14:21;;;;;;;6.73;3.97;;;15.90;99.90;;;;;;5094394;28;20435;-68
2022/06/09 01:17:18;;;;;;;15.43;4.47;;;16.00;99.90;;;;;;5094406;28;20434;-68
2022/06/09 01:20:11;;;;;;;9.97;4.70;;;15.90;99.90;;;;;;5094292;28;20511;-69
2022/06/09 01:22:52;;;;;;;9.47;4.63;;;16.00;99.90;;;;;;5094185;28;20424;-68
2022/06/09 01:25:36;;;;;;;12.30;3.60;;;16.00;99.90;;;;;;5094014;28;20521;-68
2022/06/09 04:31:53;;;;;;;37.57;11.63;;;15.80;99.90;;;;;;5279858;23;20538;-66
2022/06/09 04:34:19;;;;;;;23.27;11.90;;;15.80;99.90;;;;;;4918549;29;20440;-67
2022/06/09 04:36:45;;;;;;;18.10;10.50;;;15.90;99.90;;;;;;4918797;29;20184;-67
2022/06/09 04:39:11;;;;;;;25.20;12.00;;;16.00;99.90;;;;;;4918468;29;20179;-67
2022/06/09 04:41:37;;;;;;;17.63;12.40;;;16.10;99.90;;;;;;4918526;29;20962;-66
2022/06/09 04:44:04;;;;;;;18.30;10.27;;;16.10;99.90;;;;;;4917518;29;20493;-65
2022/06/09 04:46:31;;;;;;;22.30;11.80;;;16.10;99.90;;;;;;4917904;29;20420;-65
2022/06/09 04:48:57;;;;;;;16.50;11.00;;;16.10;99.90;;;;;;4918344;29;20466;-65
2022/06/09 04:51:26;;;;;;;17.20;10.60;;;16.20;99.90;;;;;;4918451;29;20519;-65
2022/06/09 04:53:52;;;;;;;22.23;12.07;;;16.20;99.90;;;;;;4918212;29;20859;-65
2022/06/09 04:56:19;;;;;;;21.07;13.73;;;16.20;99.90;;;;;;4917801;29;20440;-65
2022/06/09 04:58:47;;;;;;;30.10;13.07;;;16.20;99.90;;;;;;4918309;29;20176;-66
2022/06/09 05:01:17;;;;;;;27.73;11.90;;;16.20;99.90;;;;;;4918106;29;20440;-66
2022/06/09 05:03:43;;;;;;;20.17;13.93;;;16.20;99.90;;;;;;4918255;29;20455;-66
2022/06/09 05:06:08;;;;;;;22.83;12.80;;;16.20;99.90;;;;;;4918054;29;20610;-65
2022/06/09 05:08:34;;;;;;;26.00;14.97;;;16.30;99.90;;;;;;4917910;29;20419;-68
2022/06/09 05:10:59;;;;;;;31.17;15.77;;;16.20;99.90;;;;;;4917991;29;20243;-68
2022/06/09 05:13:25;;;;;;;21.23;14.37;;;16.10;99.90;;;;;;4918033;29;20176;-68
2022/06/09 05:15:54;;;;;;;25.23;15.30;;;16.10;99.90;;;;;;4917994;29;20190;-68
2022/06/09 05:18:22;;;;;;;29.60;18.27;;;16.10;99.90;;;;;;4917904;29;20427;-68
2022/06/09 05:20:49;;;;;;;22.67;15.13;;;16.10;99.90;;;;;;4916746;29;20440;-68
2022/06/09 05:23:16;;;;;;;22.00;15.30;;;16.10;99.90;;;;;;4920624;29;20432;-68
2022/06/09 05:25:42;;;;;;;29.60;18.37;;;16.20;99.90;;;;;;4926037;29;20487;-68
2022/06/09 05:28:07;;;;;;;30.63;18.57;;;16.10;99.90;;;;;;4926863;29;21013;-67
2022/06/09 05:30:33;;;;;;;24.93;17.53;;;16.10;99.90;;;;;;4922000;29;20207;-67
2022/06/09 05:33:01;;;;;;;29.63;18.07;;;16.10;99.90;;;;;;4925971;29;20192;-67
2022/06/09 05:35:27;;;;;;;35.63;17.67;;;16.20;99.90;;;;;;4926690;29;20313;-67
2022/06/09 05:46:06;;;;;;;28.40;18.93;;;16.10;99.90;;;;;;4917208;29;20430;-67
2022/06/09 05:48:33;;;;;;;31.00;18.30;;;16.20;99.90;;;;;;4918318;29;20893;-67
2022/06/09 05:50:59;;;;;;;28.97;17.53;;;16.10;99.90;;;;;;4917855;29;20432;-67
2022/06/09 05:53:25;;;;;;;31.47;19.47;;;16.20;99.90;;;;;;4917771;29;20423;-67
2022/06/09 05:55:50;;;;;;;29.33;17.93;;;16.20;99.90;;;;;;4918292;29;20427;-67
2022/06/09 05:58:16;;;;;;;26.33;17.07;;;16.20;99.90;;;;;;4918078;29;20542;-67
2022/06/09 06:00:42;;;;;;;34.87;20.17;;;16.20;99.90;;;;;;4918194;29;20299;-67
2022/06/09 06:03:09;;;;;;;35.87;20.93;;;16.20;99.90;;;;;;4917790;29;20176;-67
2022/06/09 06:08:19;;;;;;;24.80;17.23;;;16.20;99.90;;;;;;4916456;29;20982;-67
2022/06/09 06:10:44;;;;;;;27.27;17.50;;;16.20;99.90;;;;;;4917032;29;20527;-66
2022/06/09 06:13:10;;;;;;;31.73;18.00;;;16.20;99.90;;;;;;4916964;29;20190;-67
2022/06/09 06:15:35;;;;;;;44.80;20.57;;;16.20;99.90;;;;;;4916856;29;20190;-66
2022/06/09 06:18:02;;;;;;;27.03;17.97;;;16.20;99.90;;;;;;4916512;29;20183;-67
2022/06/09 06:20:29;;;;;;;33.13;18.43;;;16.20;99.90;;;;;;4916612;29;20191;-67
2022/06/09 06:22:55;;;;;;;29.83;18.47;;;16.30;99.90;;;;;;4916827;29;20513;-67
2022/06/09 06:25:21;;;;;;;23.03;17.30;;;16.30;99.90;;;;;;4916683;29;20516;-66
2022/06/09 06:27:47;;;;;;;28.77;18.00;;;16.30;99.90;;;;;;4924842;29;20955;-66
2022/06/09 06:30:12;;;;;;;46.03;21.13;;;16.40;99.90;;;;;;4925765;29;20179;-67
2022/06/09 06:32:38;;;;;;;29.60;18.73;;;16.30;99.90;;;;;;4926416;29;20223;-67
2022/06/09 06:35:04;;;;;;;28.03;17.37;;;16.30;99.90;;;;;;4924488;29;20180;-67
2022/06/09 06:37:30;;;;;;;29.83;19.37;;;16.20;99.90;;;;;;4926116;29;20183;-67
2022/06/09 06:39:55;;;;;;;29.23;17.93;;;16.30;99.90;;;;;;4925981;29;20694;-67
2022/06/09 06:42:21;;;;;;;32.10;19.17;;;16.30;99.90;;;;;;4921783;29;20250;-67
2022/06/09 06:44:46;;;;;;;27.70;18.53;;;16.40;99.90;;;;;;4916368;29;20296;-66
2022/06/09 06:47:12;;;;;;;27.87;20.83;;;16.50;99.90;;;;;;4916334;29;20659;-66
2022/06/09 06:49:37;;;;;;;26.03;18.90;;;16.40;99.90;;;;;;4916355;29;20259;-65
2022/06/09 06:52:04;;;;;;;27.07;18.93;;;16.40;99.90;;;;;;4916197;29;20259;-66
2022/06/09 06:54:29;;;;;;;36.47;20.80;;;16.40;99.90;;;;;;4916285;29;20255;-64
2022/06/09 06:56:55;;;;;;;23.13;18.03;;;16.40;99.90;;;;;;4924343;29;20537;-65
2022/06/09 06:59:20;;;;;;;29.30;20.20;;;16.40;99.90;;;;;;4925938;29;21393;-65
2022/06/09 07:01:46;;;;;;;28.23;20.50;;;16.50;99.90;;;;;;4924131;29;20202;-65
2022/06/09 07:04:11;;;;;;;33.73;21.27;;;16.50;99.90;;;;;;4925345;29;20199;-65
2022/06/09 07:06:37;;;;;;;30.13;20.57;;;16.50;99.90;;;;;;4925628;29;20585;-65
2022/06/09 07:09:03;;;;;;;28.87;19.67;;;16.70;99.90;;;;;;4923121;29;20179;-65
2022/06/09 07:11:28;;;;;;;31.50;20.27;;;16.70;99.90;;;;;;4924107;29;20207;-67
2022/06/09 07:13:54;;;;;;;28.60;20.83;;;16.60;99.90;;;;;;4926073;29;20171;-68
2022/06/09 07:16:19;;;;;;;36.30;21.07;;;16.80;99.90;;;;;;4924395;29;20172;-68
2022/06/09 07:18:45;;;;;;;27.57;20.70;;;16.80;99.90;;;;;;4924699;29;20171;-67
2022/06/09 07:21:11;;;;;;;29.07;21.57;;;16.80;99.90;;;;;;4924651;29;20270;-68
2022/06/09 07:23:37;;;;;;;32.57;20.63;;;16.90;99.90;;;;;;4923585;29;20506;-68
2022/06/09 07:26:03;;;;;;;31.53;19.37;;;16.90;99.90;;;;;;4926134;29;20844;-68
2022/06/09 07:28:29;;;;;;;23.87;19.73;;;17.00;99.90;;;;;;4934890;29;20183;-67
2022/06/09 07:30:56;;;;;;;32.57;21.40;;;17.10;99.90;;;;;;4934539;29;20467;-68
2022/06/09 07:33:23;;;;;;;33.90;24.03;;;17.10;99.90;;;;;;4928466;29;20242;-68
2022/06/09 07:35:51;;;;;;;37.00;23.00;;;17.10;99.90;;;;;;4923327;29;20451;-67
2022/06/09 07:38:18;;;;;;;31.90;22.43;;;17.00;99.90;;;;;;4915792;29;20432;-67
2022/06/09 07:40:43;;;;;;;36.40;23.80;;;17.10;99.90;;;;;;4915619;29;20484;-65
2022/06/09 07:43:10;;;;;;;32.73;23.57;;;17.10;99.90;;;;;;4915478;29;20436;-65
2022/06/09 07:45:37;;;;;;;34.60;23.97;;;17.00;99.90;;;;;;4915607;29;20369;-64
2022/06/09 07:48:04;;;;;;;36.30;24.73;;;17.10;99.90;;;;;;4916265;29;20424;-65
2022/06/09 07:50:31;;;;;;;28.73;22.80;;;17.10;99.90;;;;;;4908712;29;20938;-65
2022/06/09 07:52:56;;;;;;;36.67;25.57;;;17.10;99.90;;;;;;4915932;29;20440;-66
2022/06/09 07:55:22;;;;;;;35.17;23.53;;;17.10;99.90;;;;;;4925299;29;20442;-65
2022/06/09 07:57:48;;;;;;;33.03;24.73;;;17.10;99.90;;;;;;4924726;29;20187;-65
2022/06/09 08:00:14;;;;;;;35.33;24.83;;;17.10;99.90;;;;;;4923824;29;20927;-65
2022/06/09 08:02:41;;;;;;;33.63;24.20;;;17.20;99.90;;;;;;4921059;29;20184;-64
2022/06/09 08:05:07;;;;;;;39.10;24.77;;;17.10;99.90;;;;;;4924581;29;20592;-65
2022/06/09 08:07:33;;;;;;;38.23;23.77;;;17.10;99.90;;;;;;4925412;29;20436;-67
2022/06/09 08:09:58;;;;;;;39.27;25.90;;;17.10;99.90;;;;;;4923591;29;20475;-67
2022/06/09 08:12:24;;;;;;;38.43;25.33;;;17.00;99.90;;;;;;4925203;29;20631;-67
2022/06/09 08:14:50;;;;;;;38.77;25.57;;;17.10;99.90;;;;;;4924891;29;20208;-67
2022/06/09 08:17:15;;;;;;;39.53;27.97;;;17.10;99.90;;;;;;4923456;29;20184;-67
2022/06/09 08:19:42;;;;;;;39.13;25.80;;;17.10;99.90;;;;;;4925530;29;20186;-67
2022/06/09 08:22:08;;;;;;;38.23;25.73;;;17.10;99.90;;;;;;4924475;29;20176;-67
2022/06/09 08:24:33;;;;;;;33.47;24.00;;;17.10;99.90;;;;;;4923739;29;20478;-67
2022/06/09 08:27:00;;;;;;;29.33;25.30;;;17.10;99.90;;;;;;4925266;29;20547;-66
2022/06/09 08:29:26;;;;;;;36.07;25.87;;;17.20;99.90;;;;;;4924357;29;20187;-66
2022/06/09 08:31:52;;;;;;;33.97;26.63;;;17.30;99.90;;;;;;4925621;29;20484;-66
2022/06/09 08:34:18;;;;;;;44.77;26.93;;;17.30;99.90;;;;;;4928694;29;20543;-67
2022/06/09 08:36:44;;;;;;;39.50;25.97;;;17.30;99.90;;;;;;4923678;29;20432;-66
2022/06/09 08:39:10;;;;;;;44.73;27.80;;;17.40;99.90;;;;;;4918679;29;20188;-66
2022/06/09 08:41:54;;;;;;;39.70;26.40;;;17.40;99.90;;;;;;4918655;29;20180;-66
2022/06/09 08:45:02;;;;;;;38.30;24.10;;;17.40;99.90;;;;;;4921168;29;20489;-66
2022/06/09 08:47:33;;;;;;;36.87;24.80;;;17.60;99.90;;;;;;4921921;29;20998;-66
2022/06/09 08:50:19;;;;;;;31.73;23.30;;;17.70;99.90;;;;;;4931739;29;20434;-66
2022/06/09 08:53:04;;;;;;;36.03;25.43;;;17.80;99.90;;;;;;4937207;29;20505;-66
2022/06/09 08:55:45;;;;;;;39.93;24.63;;;17.80;99.90;;;;;;4937399;29;20837;-65
2022/06/09 08:58:26;;;;;;;37.70;26.10;;;17.90;99.90;;;;;;4937202;29;20442;-66
2022/06/09 09:01:10;;;;;;;38.50;25.43;;;18.10;99.90;;;;;;4937090;29;20478;-66
2022/06/09 09:03:46;;;;;;;32.63;25.43;;;18.10;99.90;;;;;;4936984;29;20545;-67
2022/06/09 09:06:26;;;;;;;35.97;25.63;;;18.30;99.90;;;;;;4934065;29;20435;-66
2022/06/09 09:08:55;;;;;;;31.90;25.40;;;18.20;99.90;;;;;;4921622;29;20495;-66
2022/06/09 09:11:52;;;;;;;40.73;27.13;;;18.30;99.90;;;;;;4924103;29;20496;-66
2022/06/09 09:14:48;;;;;;;32.00;23.47;;;18.50;99.90;;;;;;4927396;29;20447;-66
2022/06/09 09:17:13;;;;;;;26.80;21.27;;;18.50;99.90;;;;;;4936904;29;20791;-66
2022/06/09 09:20:04;;;;;;;31.80;24.33;;;18.40;99.90;;;;;;4926829;29;20448;-66
2022/06/09 09:22:46;;;;;;;31.67;22.63;;;18.40;99.90;;;;;;4922963;29;20168;-66
2022/06/09 09:25:13;;;;;;;28.07;21.77;;;18.50;99.90;;;;;;4917561;29;20484;-66
2022/06/09 09:27:53;;;;;;;30.27;21.47;;;18.50;99.90;;;;;;4917517;29;20443;-66
2022/06/09 09:30:37;;;;;;;26.63;20.60;;;18.60;99.90;;;;;;4924711;29;20480;-66
2022/06/09 09:33:02;;;;;;;29.13;23.37;;;18.70;99.90;;;;;;4922673;29;20442;-67
2022/06/09 09:35:35;;;;;;;34.43;22.20;;;18.80;99.90;;;;;;4929517;29;20435;-66
2022/06/09 09:38:02;;;;;;;22.30;19.90;;;18.90;99.90;;;;;;4936559;29;20178;-67
2022/06/09 09:40:35;;;;;;;24.37;18.87;;;19.10;99.90;;;;;;4936445;29;20431;-66
2022/06/09 09:43:06;;;;;;;28.13;20.47;;;19.20;99.90;;;;;;4936368;29;20462;-66
2022/06/09 09:45:39;;;;;;;23.90;20.37;;;19.30;99.90;;;;;;4936442;29;20458;-67
2022/06/09 09:48:27;;;;;;;24.83;20.17;;;19.40;99.90;;;;;;4925056;29;20450;-66
2022/06/09 09:51:00;;;;;;;23.37;19.20;;;19.40;99.90;;;;;;4926759;29;20443;-66
2022/06/09 09:53:36;;;;;;;23.00;18.73;;;19.40;99.90;;;;;;4926648;29;20436;-67
2022/06/09 09:56:37;;;;;;;20.63;17.83;;;19.50;99.90;;;;;;4924109;29;20423;-67
2022/06/09 09:59:24;;;;;;;20.23;17.40;;;19.40;99.90;;;;;;4924134;29;20435;-67
2022/06/09 10:10:26;;;;;;;19.60;15.40;;;19.70;99.90;;;;;;4924061;29;20515;-67
2022/06/09 10:12:54;;;;;;;18.50;15.27;;;19.80;99.90;;;;;;4925010;29;20444;-66
2022/06/09 10:15:21;;;;;;;18.63;15.07;;;20.00;99.90;;;;;;4926447;29;20438;-67
2022/06/09 10:17:58;;;;;;;17.17;14.70;;;20.10;99.90;;;;;;4926323;29;20495;-67
2022/06/09 10:20:31;;;;;;;17.40;15.33;;;20.20;99.90;;;;;;4924173;29;20437;-67
2022/06/09 10:23:09;;;;;;;22.63;14.90;;;20.30;99.90;;;;;;4922404;29;20423;-67
2022/06/09 10:25:46;;;;;;;19.27;16.80;;;20.20;99.90;;;;;;4924801;29;20498;-67
2022/06/09 10:28:43;;;;;;;19.73;16.90;;;20.20;99.90;;;;;;4924654;29;20808;-68
2022/06/09 10:31:27;;;;;;;19.17;14.77;;;20.30;99.90;;;;;;4925009;29;20471;-67
2022/06/09 10:34:09;;;;;;;14.80;13.20;;;20.40;99.90;;;;;;4925994;29;20423;-68
2022/06/09 10:37:01;;;;;;;17.73;13.43;;;20.50;99.90;;;;;;4926561;29;20792;-68
2022/06/09 10:39:33;;;;;;;21.80;15.30;;;20.50;99.90;;;;;;4924642;29;20459;-68
2022/06/09 10:42:27;;;;;;;20.10;15.80;;;20.60;99.90;;;;;;4919098;29;20444;-67
2022/06/09 10:45:05;;;;;;;15.47;13.87;;;20.70;99.90;;;;;;4916750;29;20495;-67
2022/06/09 10:57:02;;;;;;;14.73;13.23;;;20.80;99.90;;;;;;4916412;29;20927;-67
2022/06/09 10:59:49;;;;;;;8.57;7.73;;;20.70;99.90;;;;;;4916310;29;20443;-67
2022/06/09 11:02:22;;;;;;;9.50;6.67;;;20.20;99.90;;;;;;4932575;29;20458;-67
2022/06/09 11:04:49;;;;;;;10.10;9.00;;;19.90;99.90;;;;;;4927420;29;20574;-67
2022/06/09 11:07:36;;;;;;;17.27;11.70;;;19.80;99.90;;;;;;4931588;29;20435;-67
2022/06/09 11:10:26;;;;;;;14.40;13.00;;;19.70;99.90;;;;;;4923410;29;20871;-66
2022/06/09 11:13:18;;;;;;;18.00;13.30;;;19.50;99.90;;;;;;4922593;29;20423;-66
2022/06/09 11:15:55;;;;;;;17.97;15.00;;;19.30;99.90;;;;;;4935114;29;20431;-66
2022/06/09 11:18:38;;;;;;;17.90;16.10;;;19.20;99.90;;;;;;4926171;29;20448;-67
2022/06/09 11:21:03;;;;;;;21.80;17.23;;;19.10;99.90;;;;;;4923771;29;21114;-66
2022/06/09 11:23:52;;;;;;;25.67;16.93;;;19.00;99.90;;;;;;4925342;29;20427;-66
2022/06/09 11:26:42;;;;;;;20.03;17.10;;;18.90;99.90;;;;;;4924813;29;20191;-66
2022/06/09 11:29:24;;;;;;;19.90;16.90;;;18.90;99.90;;;;;;4922132;29;20428;-66
2022/06/09 11:32:18;;;;;;;20.67;16.90;;;18.90;99.90;;;;;;4922602;29;20828;-66
2022/06/09 11:35:02;;;;;;;20.33;15.93;;;18.90;99.90;;;;;;4923637;29;20791;-67
2022/06/09 11:37:49;;;;;;;21.60;16.93;;;18.90;99.90;;;;;;4922162;29;20443;-66
2022/06/09 11:40:29;;;;;;;18.93;15.23;;;19.00;99.90;;;;;;4923742;29;20971;-67
2022/06/09 11:43:29;;;;;;;15.23;13.70;;;19.20;99.90;;;;;;4923810;29;20999;-67
2022/06/09 11:46:02;;;;;;;14.90;12.90;;;19.40;99.90;;;;;;4895683;29;20440;-67
2022/06/09 11:48:43;;;;;;;13.43;12.03;;;19.70;99.90;;;;;;4896806;29;20570;-68
2022/06/09 11:51:10;;;;;;;13.55;8.20;;;19.90;99.90;;;;;;4895533;29;20436;-68
2022/06/09 11:53:40;;;;;;;6.03;5.17;;;19.90;99.90;;;;;;4896829;29;20188;-72
2022/06/09 11:56:33;;;;;;;5.77;4.73;;;19.80;99.90;;;;;;4896824;29;20440;-68
2022/06/09 11:59:22;;;;;;;4.10;3.67;;;19.80;99.90;;;;;;4896521;29;20448;-68
2022/06/09 12:01:50;;;;;;;6.27;5.67;;;19.70;99.90;;;;;;4903102;29;20908;-70
2022/06/09 12:04:57;;;;;;;6.67;6.03;;;19.50;99.90;;;;;;4931900;29;20491;-70
2022/06/09 12:07:38;;;;;;;5.93;5.30;;;19.50;99.90;;;;;;4925947;29;20439;-69
2022/06/09 12:10:22;;;;;;;5.47;4.27;;;19.60;99.90;;;;;;4927613;29;20808;-73
2022/06/09 12:13:15;;;;;;;10.37;5.80;;;19.70;99.90;;;;;;4930900;29;20437;-68
2022/06/09 12:16:01;;;;;;;6.17;4.13;;;19.80;99.90;;;;;;4927599;29;20422;-68
2022/06/09 12:18:30;;;;;;;9.10;4.67;;;19.80;99.90;;;;;;4926945;29;20449;-68
2022/06/09 12:21:26;;;;;;;7.63;4.53;;;19.80;99.90;;;;;;4927512;29;20840;-68
2022/06/09 12:24:04;;;;;;;6.83;4.50;;;19.80;99.90;;;;;;4924604;29;20470;-67
2022/06/09 12:26:44;;;;;;;8.77;5.70;;;19.70;99.90;;;;;;4925031;29;20439;-67
2022/06/09 12:29:21;;;;;;;8.03;5.33;;;19.70;99.90;;;;;;4925714;29;20431;-68
2022/06/09 12:32:08;;;;;;;6.17;5.67;;;19.70;99.90;;;;;;4927798;29;20843;-68
2022/06/09 12:34:39;;;;;;;7.77;6.33;;;19.70;99.90;;;;;;4920917;29;20427;-67
2022/06/09 12:37:14;;;;;;;7.07;6.40;;;19.80;99.90;;;;;;4926665;29;20423;-68
2022/06/09 12:39:46;;;;;;;6.87;6.27;;;19.80;99.90;;;;;;4928358;29;20906;-67
2022/06/09 12:42:23;;;;;;;9.47;5.00;;;19.70;99.90;;;;;;4927745;29;20521;-68
2022/06/09 12:44:58;;;;;;;12.23;4.97;;;19.70;99.90;;;;;;4928538;29;20569;-67
2022/06/09 12:47:25;;;;;;;9.13;4.73;;;19.60;99.90;;;;;;4937407;29;20789;-67
2022/06/09 12:49:54;;;;;;;5.67;4.17;;;19.50;99.90;;;;;;4936149;29;20439;-67
2022/06/09 12:52:45;;;;;;;2.80;2.30;;;19.30;99.90;;;;;;4937269;29;20430;-67
2022/06/09 12:55:19;;;;;;;6.53;3.00;;;19.20;99.90;;;;;;4937368;29;20426;-67
2022/06/09 12:57:51;;;;;;;2.70;2.40;;;19.00;99.90;;;;;;4937364;29;20519;-67
2022/06/09 13:00:21;;;;;;;3.97;2.90;;;18.90;99.90;;;;;;4937276;29;20941;-67
2022/06/09 13:02:48;;;;;;;5.17;2.57;;;18.60;99.90;;;;;;4937165;29;20435;-67
2022/06/09 13:05:16;;;;;;;2.70;2.10;;;18.50;99.90;;;;;;4937043;29;20483;-68
2022/06/09 13:07:53;;;;;;;2.90;2.70;;;18.30;99.90;;;;;;4937076;29;20434;-68
2022/06/09 13:10:21;;;;;;;2.60;2.40;;;18.20;99.90;;;;;;4935928;29;20462;-67
2022/06/09 13:12:52;;;;;;;3.50;2.20;;;18.10;99.90;;;;;;4927109;29;20432;-67
2022/06/09 13:15:37;;;;;;;7.23;3.10;;;18.10;99.90;;;;;;4925889;29;20435;-67
2022/06/09 13:18:11;;;;;;;4.60;2.00;;;18.10;99.90;;;;;;4921174;29;20435;-66
2022/06/09 13:20:57;;;;;;;5.10;1.80;;;18.20;99.90;;;;;;4925907;29;20435;-66
2022/06/09 13:23:25;;;;;;;1.43;1.33;;;18.30;99.90;;;;;;4923623;29;20432;-66
2022/06/09 13:25:51;;;;;;;2.67;1.50;;;18.30;99.90;;;;;;4926659;29;20451;-66
2022/06/09 13:28:28;;;;;;;1.50;1.40;;;18.30;99.90;;;;;;4931151;29;20427;-65
2022/06/09 13:30:54;;;;;;;1.93;1.30;;;18.30;99.90;;;;;;4936600;29;20595;-65
2022/06/09 13:33:23;;;;;;;2.50;1.53;;;18.30;99.90;;;;;;4936274;29;20490;-67
2022/06/09 13:35:52;;;;;;;2.40;1.60;;;18.40;99.90;;;;;;4929640;29;20455;-69
2022/06/09 13:38:26;;;;;;;3.40;1.30;;;18.30;99.90;;;;;;4928247;29;20773;-66
2022/06/09 13:40:55;;;;;;;2.80;1.93;;;18.30;99.90;;;;;;4924048;29;20467;-67
2022/06/09 13:43:37;;;;;;;3.23;1.50;;;18.30;99.90;;;;;;4925736;29;20788;-66
2022/06/09 13:46:19;;;;;;;1.57;1.40;;;18.30;99.90;;;;;;4926632;29;20443;-64
2022/06/09 13:48:57;;;;;;;4.70;1.90;;;18.20;99.90;;;;;;4925018;29;20908;-65
2022/06/09 13:51:54;;;;;;;1.60;1.50;;;18.30;99.90;;;;;;4930085;29;20454;-65
2022/06/09 13:54:28;;;;;;;1.63;1.53;;;18.30;99.90;;;;;;4927951;29;20442;-65
2022/06/09 13:56:54;;;;;;;3.27;2.40;;;18.30;99.90;;;;;;4933321;29;20430;-67
2022/06/09 13:59:21;;;;;;;4.30;2.40;;;18.30;99.90;;;;;;4936219;29;20423;-67
2022/06/09 14:01:49;;;;;;;2.60;2.33;;;18.30;99.90;;;;;;4936087;29;20257;-66
2022/06/09 14:04:32;;;;;;;5.53;2.87;;;18.20;99.90;;;;;;4935946;29;20481;-67
2022/06/09 14:06:58;;;;;;;2.57;2.33;;;18.20;99.90;;;;;;4935886;29;20481;-67
2022/06/09 14:09:24;;;;;;;3.30;2.80;;;18.20;99.90;;;;;;4936005;29;20427;-67
2022/06/09 14:11:49;;;;;;;2.90;2.60;;;18.20;99.90;;;;;;4935846;29;20175;-66
2022/06/09 14:14:15;;;;;;;5.20;2.10;;;18.30;99.90;;;;;;4935917;29;20175;-67
2022/06/09 14:16:45;;;;;;;2.70;2.50;;;18.30;99.90;;;;;;4930041;29;20179;-64
2022/06/09 14:19:13;;;;;;;2.53;2.33;;;18.20;99.90;;;;;;4925203;29;20179;-64
2022/06/09 14:21:39;;;;;;;3.40;2.70;;;18.20;99.90;;;;;;4927737;29;20435;-64
2022/06/09 14:24:12;;;;;;;2.90;2.70;;;18.20;99.90;;;;;;4935497;29;20832;-64
2022/06/09 14:26:38;;;;;;;4.13;2.77;;;18.20;99.90;;;;;;4935644;29;20209;-64
2022/06/09 14:29:06;;;;;;;3.37;2.60;;;18.20;99.90;;;;;;4924202;29;20437;-64
2022/06/09 14:31:32;;;;;;;8.80;2.90;;;18.30;99.90;;;;;;4932177;29;20471;-64
2022/06/09 14:34:00;;;;;;;4.87;3.20;;;18.20;99.90;;;;;;4934656;29;20498;-64
2022/06/09 14:36:26;;;;;;;4.27;3.13;;;18.20;99.90;;;;;;4922216;29;20436;-65
2022/06/09 14:38:56;;;;;;;3.43;2.83;;;18.30;99.90;;;;;;4920002;29;20446;-64
2022/06/09 14:41:23;;;;;;;2.70;2.50;;;18.30;99.90;;;;;;4916600;29;20427;-64
2022/06/09 14:43:48;;;;;;;3.57;3.10;;;18.30;99.90;;;;;;4916930;29;20508;-64
2022/06/09 14:46:27;;;;;;;3.97;3.17;;;18.40;99.90;;;;;;4916871;29;20791;-64
2022/06/09 14:48:54;;;;;;;3.77;2.90;;;18.50;99.90;;;;;;4916958;29;20574;-64
2022/06/09 14:51:20;;;;;;;3.43;2.70;;;18.50;99.90;;;;;;4915765;29;20424;-64
2022/06/09 14:53:46;;;;;;;5.97;2.77;;;18.60;99.90;;;;;;4916913;29;20419;-64
2022/06/09 14:56:15;;;;;;;5.93;2.93;;;18.70;99.90;;;;;;4928693;29;20445;-65
2022/06/09 14:58:41;;;;;;;3.80;3.43;;;18.90;99.90;;;;;;4934719;29;20635;-65
2022/06/09 15:01:06;;;;;;;6.70;3.57;;;19.00;99.90;;;;;;4935926;29;20427;-65
2022/06/09 15:03:32;;;;;;;4.30;3.10;;;19.00;99.90;;;;;;4935819;29;20527;-65
2022/06/09 15:05:57;;;;;;;5.70;3.10;;;19.20;99.90;;;;;;4935840;29;20171;-65
2022/06/09 15:08:23;;;;;;;5.00;3.40;;;19.40;99.90;;;;;;4934701;29;20191;-66
2022/06/09 15:10:52;;;;;;;3.20;2.93;;;19.70;99.90;;;;;;4935936;29;20194;-65
2022/06/09 15:13:18;;;;;;;7.67;3.30;;;19.80;99.90;;;;;;4935928;29;20446;-67
2022/06/09 15:15:44;;;;;;;4.00;2.43;;;20.00;99.90;;;;;;4935908;29;20458;-68
2022/06/09 15:18:15;;;;;;;3.80;2.60;;;20.20;99.90;;;;;;4935620;29;20435;-68
2022/06/09 15:20:42;;;;;;;5.30;3.00;;;20.40;99.90;;;;;;4935856;29;20183;-67
2022/06/09 15:23:10;;;;;;;3.50;2.50;;;20.40;99.90;;;;;;4935751;29;20427;-67
2022/06/09 15:25:36;;;;;;;3.30;2.27;;;20.20;99.90;;;;;;4935627;29;20482;-67
2022/06/09 15:28:03;;;;;;;2.50;2.30;;;20.20;99.90;;;;;;4935534;29;20438;-67
2022/06/09 15:30:32;;;;;;;2.40;2.20;;;20.20;99.90;;;;;;4935419;29;20207;-67
2022/06/09 15:32:59;;;;;;;2.10;2.00;;;20.20;99.90;;;;;;4935663;29;20435;-67
2022/06/09 15:35:26;;;;;;;3.10;2.13;;;20.20;99.90;;;;;;4935489;29;20514;-67
2022/06/09 15:37:52;;;;;;;2.90;2.60;;;20.10;99.90;;;;;;4935726;29;20982;-80
2022/06/09 15:40:30;;;;;;;3.30;2.17;;;20.00;99.90;;;;;;4936774;29;20459;-66
2022/06/09 15:42:58;;;;;;;5.10;2.50;;;20.00;99.90;;;;;;4939661;29;20423;-66
2022/06/09 15:45:24;;;;;;;3.60;2.37;;;20.10;99.90;;;;;;4938596;29;20478;-67
2022/06/09 15:47:49;;;;;;;3.80;2.37;;;20.20;99.90;;;;;;4938407;29;20431;-66
2022/06/09 15:50:20;;;;;;;5.10;2.63;;;20.30;99.90;;;;;;4938455;29;20726;-66
2022/06/09 15:52:45;;;;;;;4.63;2.60;;;20.50;99.90;;;;;;4937546;29;20183;-67
2022/06/09 15:55:12;;;;;;;3.57;2.40;;;20.50;99.90;;;;;;4938246;29;20438;-66
2022/06/09 15:57:38;;;;;;;4.53;3.43;;;20.40;99.90;;;;;;4938428;29;20191;-65
2022/06/09 16:00:07;;;;;;;7.90;3.10;;;20.40;99.90;;;;;;4938401;29;20770;-67
2022/06/09 16:02:33;;;;;;;5.30;3.23;;;20.40;99.90;;;;;;4938298;29;20250;-69
2022/06/09 16:04:58;;;;;;;5.23;3.20;;;20.30;99.90;;;;;;4938093;29;20514;-66
2022/06/09 16:07:24;;;;;;;4.07;3.40;;;20.30;99.90;;;;;;4937687;29;20506;-65
2022/06/09 16:09:50;;;;;;;4.23;3.07;;;20.20;99.90;;;;;;4936875;29;20666;-65
2022/06/09 16:12:16;;;;;;;6.53;3.43;;;20.10;99.90;;;;;;4938187;29;20199;-65
2022/06/09 16:14:47;;;;;;;5.07;2.90;;;20.00;99.90;;;;;;4938053;29;20443;-65
2022/06/09 16:17:13;;;;;;;5.43;3.20;;;19.90;99.90;;;;;;4937825;29;20811;-65
2022/06/09 16:19:39;;;;;;;4.67;3.33;;;19.80;99.90;;;;;;4937853;29;20435;-66
2022/06/09 16:22:04;;;;;;;3.83;3.07;;;19.70;99.90;;;;;;4937873;29;20715;-66
2022/06/09 16:24:30;;;;;;;5.43;3.40;;;19.70;99.90;;;;;;4937625;29;20214;-66
2022/06/09 16:26:55;;;;;;;6.07;3.33;;;19.80;99.90;;;;;;4937776;29;20171;-66
2022/06/09 16:29:21;;;;;;;2.80;2.20;;;19.90;99.90;;;;;;4937678;29;20520;-66
2022/06/09 16:31:47;;;;;;;8.13;3.00;;;19.90;99.90;;;;;;4937637;29;20235;-66